createdAt,value
2022-11-18T00:02:03.131Z,24.1
2022-11-18T00:07:05.557Z,24.8
2022-11-18T00:12:08.182Z,25.7
2022-11-18T00:17:10.430Z,25.1
2022-11-18T00:22:34.223Z,26.7
2022-11-18T00:27:36.503Z,25.9
2022-11-18T00:32:38.556Z,24.8
2022-11-18T00:37:40.807Z,25.2
2022-11-18T00:42:43.150Z,25.1
2022-11-18T00:47:45.339Z,24.2
2022-11-18T00:52:47.519Z,23.8
2022-11-18T00:57:49.904Z,24.5
2022-11-18T01:02:52.123Z,24.3
2022-11-18T01:07:54.448Z,24.8
2022-11-18T01:12:58.132Z,23.6
2022-11-18T01:18:01.604Z,25.1
2022-11-18T01:23:04.000Z,24.4
2022-11-18T01:28:06.443Z,24.9
2022-11-18T01:33:08.562Z,24.3
2022-11-18T01:38:10.837Z,24.5
2022-11-18T01:43:13.155Z,24.9
2022-11-18T01:53:18.742Z,23.8
2022-11-18T01:58:21.106Z,24.3
2022-11-18T02:03:23.663Z,25.3
2022-11-18T02:08:26.040Z,24.5
2022-11-18T02:13:28.169Z,26.4
2022-11-18T02:18:30.304Z,24
2022-11-18T02:23:32.498Z,23.7
2022-11-18T02:28:34.844Z,23.1
2022-11-18T02:33:36.849Z,23.6
2022-11-18T02:38:39.193Z,23.3
2022-11-18T02:43:41.863Z,21.4
2022-11-18T02:48:44.280Z,22.2
2022-11-18T02:53:46.731Z,22.1
2022-11-18T02:58:49.127Z,20.6
2022-11-18T03:03:51.388Z,20.1
2022-11-18T03:08:53.782Z,19.7
2022-11-18T03:13:56.180Z,21
2022-11-18T03:18:58.449Z,21.2
2022-11-18T03:24:00.870Z,21.9
2022-11-18T03:29:03.661Z,21.7
2022-11-18T03:34:05.991Z,21.9
2022-11-18T03:39:08.238Z,21.8
2022-11-18T03:44:10.625Z,21.9
2022-11-18T03:49:13.127Z,21.9
2022-11-18T03:54:16.020Z,23.1
2022-11-18T03:59:18.905Z,21.9
2022-11-18T04:04:21.968Z,21.9
2022-11-18T04:09:24.142Z,21.8
2022-11-18T04:14:26.413Z,21.4
2022-11-18T04:19:28.580Z,21.8
2022-11-18T04:24:30.707Z,22.9
2022-11-18T04:29:32.984Z,21
2022-11-18T04:34:35.163Z,20.3
2022-11-18T04:39:37.523Z,20
2022-11-18T04:44:39.656Z,20.3
2022-11-18T04:49:42.107Z,22
2022-11-18T04:54:44.714Z,23.2
2022-11-18T04:59:47.101Z,25.4
2022-11-18T05:04:49.291Z,26.3
2022-11-18T05:09:51.683Z,28.1
2022-11-18T05:14:54.049Z,28.1
2022-11-18T05:19:56.209Z,28.1
2022-11-18T05:24:58.787Z,26.4
2022-11-18T05:30:01.148Z,24.8
2022-11-18T05:35:03.421Z,25.4
2022-11-18T05:40:05.651Z,25.1
2022-11-18T05:45:07.857Z,22.1
2022-11-18T05:50:10.203Z,21.7
2022-11-18T05:55:12.361Z,20.9
2022-11-18T06:00:14.547Z,20.1
2022-11-18T06:05:16.712Z,19.1
2022-11-18T06:10:18.861Z,19.4
2022-11-18T06:15:21.043Z,20.3
2022-11-18T06:20:23.122Z,24.2
2022-11-18T06:25:25.340Z,24.1
2022-11-18T06:30:27.553Z,21.5
2022-11-18T06:35:29.737Z,19.9
2022-11-18T06:40:35.882Z,20.3
2022-11-18T06:45:38.285Z,20
2022-11-18T06:50:40.502Z,19.5
2022-11-18T06:55:42.610Z,18.8
2022-11-18T07:00:44.920Z,17.7
2022-11-18T07:05:47.322Z,16.7
2022-11-18T07:10:49.687Z,16.5
2022-11-18T07:15:51.883Z,15.9
2022-11-18T07:20:54.062Z,16.7
2022-11-18T07:25:56.458Z,19.4
2022-11-18T07:30:58.994Z,19.5
2022-11-18T07:36:01.106Z,20.2
2022-11-18T07:41:03.333Z,21
2022-11-18T07:46:05.496Z,21.3
2022-11-18T07:51:07.683Z,21.4
2022-11-18T07:56:09.955Z,21.6
2022-11-18T08:01:12.345Z,21.7
2022-11-18T08:06:14.966Z,20.9
2022-11-18T08:11:23.213Z,20
2022-11-18T08:16:25.702Z,20.7
2022-11-18T08:21:27.745Z,20.6
2022-11-18T08:26:29.970Z,20.5
2022-11-18T08:31:32.163Z,19.3
2022-11-18T08:36:34.398Z,17.4
2022-11-18T08:41:36.729Z,15.6
2022-11-18T08:46:38.969Z,16.4
2022-11-18T08:51:41.011Z,15.6
2022-11-18T08:56:43.241Z,15.2
2022-11-18T09:01:45.719Z,13.7
2022-11-18T09:06:46.615Z,13.1
2022-11-18T09:11:50.195Z,12.6
2022-11-18T09:16:52.778Z,12.4
2022-11-18T09:21:55.188Z,12.3
2022-11-18T09:26:57.314Z,11.7
2022-11-18T09:31:59.507Z,11.6
2022-11-18T09:37:01.654Z,11.4
2022-11-18T09:42:03.944Z,14.5
2022-11-18T09:47:06.076Z,12
2022-11-18T09:52:08.373Z,12.1
2022-11-18T09:57:10.520Z,12.2
2022-11-18T10:02:12.832Z,11.8
2022-11-18T10:07:15.556Z,10.8
2022-11-18T10:12:18.008Z,11.3
2022-11-18T10:17:20.204Z,11.9
2022-11-18T10:22:25.595Z,12.4
2022-11-18T10:27:27.959Z,12.6
2022-11-18T10:32:30.257Z,12.9
2022-11-18T10:38:07.678Z,11.5
2022-11-18T10:42:40.655Z,12.1
2022-11-18T10:47:42.851Z,13
2022-11-18T10:52:45.045Z,14.3
2022-11-18T10:57:47.207Z,14.3
2022-11-18T11:02:49.430Z,13.9
2022-11-18T11:08:09.214Z,11.8
2022-11-18T11:12:58.757Z,11.9
2022-11-18T11:18:00.944Z,11.1
2022-11-18T11:23:02.995Z,11.9
2022-11-18T11:33:07.329Z,12.7
2022-11-18T11:38:09.312Z,13.7
2022-11-18T11:43:11.256Z,13.4
2022-11-18T11:48:13.298Z,14.3
2022-11-18T11:53:15.219Z,14.4
2022-11-18T11:58:17.252Z,15.1
2022-11-18T12:03:19.419Z,15.4
2022-11-18T12:08:21.519Z,16
2022-11-18T12:13:23.602Z,15.9
2022-11-18T12:18:25.690Z,17.9
2022-11-18T12:23:27.648Z,17.5
2022-11-18T12:28:29.657Z,18.5
2022-11-18T12:33:31.851Z,18.8
2022-11-18T12:38:34.132Z,19.2
2022-11-18T12:43:36.272Z,18.1
2022-11-18T12:48:38.273Z,18.2
2022-11-18T12:53:40.567Z,15.4
2022-11-18T12:58:43.019Z,14.8
2022-11-18T13:03:45.180Z,12.8
2022-11-18T13:08:47.111Z,13.6
2022-11-18T13:13:49.010Z,14.1
2022-11-18T13:18:51.129Z,14.4
2022-11-18T13:24:00.825Z,13.8
2022-11-18T13:28:53.274Z,12.3
2022-11-18T13:33:55.318Z,11.7
2022-11-18T13:38:57.386Z,13.4
2022-11-18T13:49:01.605Z,11.9
2022-11-18T13:54:03.510Z,11.8
2022-11-18T13:59:18.684Z,12.1
2022-11-18T14:04:10.946Z,11.1
2022-11-18T14:09:12.982Z,11.9
2022-11-18T14:19:18.981Z,10.5
2022-11-18T14:24:21.921Z,14.4
2022-11-18T14:29:22.632Z,10
2022-11-18T14:34:25.063Z,10
2022-11-18T14:39:28.192Z,10
2022-11-18T14:44:30.586Z,8.7
2022-11-18T14:49:32.811Z,9.2
2022-11-18T14:54:35.470Z,10
2022-11-18T14:59:37.653Z,9.8
2022-11-18T15:04:39.761Z,9.6
2022-11-18T15:09:42.032Z,8.5
2022-11-18T15:14:44.060Z,9.8
2022-11-18T15:19:46.272Z,15
2022-11-18T15:24:48.320Z,4.2
2022-11-18T15:29:50.416Z,2.6
2022-11-18T15:34:52.562Z,1.8
2022-11-18T15:39:54.564Z,1.7
2022-11-18T15:44:56.871Z,1.8
2022-11-18T15:49:58.786Z,2.7
2022-11-18T15:55:07.832Z,3
2022-11-18T16:00:11.456Z,2.5
2022-11-18T16:05:13.702Z,2.5
2022-11-18T16:10:15.841Z,2.7
2022-11-18T16:15:18.900Z,3.9
2022-11-18T16:20:21.208Z,3.1
2022-11-18T16:25:23.297Z,3.4
2022-11-18T16:30:25.939Z,3.5
2022-11-18T16:35:28.086Z,3.4
2022-11-18T16:40:30.228Z,3.7
2022-11-18T16:45:32.245Z,3.6
2022-11-18T16:50:34.334Z,4.8
2022-11-18T16:55:36.507Z,4.5
2022-11-18T17:01:19.988Z,7.5
2022-11-18T17:05:41.003Z,4.4
2022-11-18T17:10:43.328Z,4.5
2022-11-18T17:15:45.616Z,4.6
2022-11-18T17:20:47.783Z,4.9
2022-11-18T17:25:49.842Z,4.9
2022-11-18T17:30:51.817Z,4.7
2022-11-18T17:35:55.949Z,7
2022-11-18T17:40:56.436Z,5.4
2022-11-18T17:45:58.820Z,5.8
2022-11-18T17:51:01.034Z,5.9
2022-11-18T17:56:05.094Z,5.9
2022-11-18T18:01:07.795Z,5.3
2022-11-18T18:06:10.347Z,5.5
2022-11-18T18:11:12.750Z,6.9
2022-11-18T18:16:16.913Z,5.6
2022-11-18T18:21:19.031Z,5.8
2022-11-18T18:26:23.220Z,6.2
2022-11-18T18:31:23.151Z,6.1
2022-11-18T18:36:25.342Z,6.3
2022-11-18T18:41:27.395Z,6.5
2022-11-18T18:46:30.315Z,7.4
2022-11-18T18:51:33.003Z,7.3
2022-11-18T18:56:35.069Z,7.4
2022-11-18T19:01:37.271Z,7.4
2022-11-18T19:11:48.277Z,7.6
2022-11-18T19:16:50.865Z,7.5
2022-11-18T19:21:52.859Z,8.7
2022-11-18T19:26:54.925Z,8.1
2022-11-18T19:31:56.951Z,8.1
2022-11-18T19:36:58.972Z,7.6
2022-11-18T19:42:01.045Z,7.8
2022-11-18T19:47:03.008Z,8.4
2022-11-18T19:52:05.579Z,7.8
2022-11-18T19:57:07.890Z,7.8
2022-11-18T20:02:10.119Z,8.1
2022-11-18T20:07:12.344Z,7.7
2022-11-18T20:12:15.157Z,7.5
2022-11-18T20:17:17.428Z,7.6
2022-11-18T20:22:19.521Z,8
2022-11-18T20:27:21.508Z,7.8
2022-11-18T20:32:23.568Z,7.4
2022-11-18T20:37:28.889Z,7.7
2022-11-18T20:42:31.128Z,9.3
2022-11-18T20:47:33.234Z,8.7
2022-11-18T20:52:35.377Z,8.5
2022-11-18T20:57:38.029Z,7.9
2022-11-18T21:02:40.045Z,10.2
2022-11-18T21:07:43.764Z,9.8
2022-11-18T21:12:45.835Z,9.1
2022-11-18T21:17:48.129Z,8.4
2022-11-18T21:22:50.317Z,8.3
2022-11-18T21:27:52.423Z,7.8
2022-11-18T21:32:54.536Z,7.8
2022-11-18T21:37:56.919Z,8.3
2022-11-18T21:42:59.167Z,8.3
2022-11-18T21:48:01.282Z,8.9
2022-11-18T21:53:03.444Z,9.3
2022-11-18T21:58:07.654Z,8.7
2022-11-18T22:03:09.790Z,8.3
2022-11-18T22:08:14.706Z,8.3
2022-11-18T22:13:16.738Z,8.1
2022-11-18T22:18:18.995Z,8.6
2022-11-18T22:23:21.034Z,8.1
2022-11-18T22:28:23.085Z,7.7
2022-11-18T22:33:26.124Z,8.1
2022-11-18T22:38:28.257Z,8.3
2022-11-18T22:43:30.291Z,7.9
2022-11-18T22:48:32.283Z,7.8
2022-11-18T22:53:34.425Z,7.7
2022-11-18T22:58:36.448Z,7.6
2022-11-18T23:03:38.376Z,6.8
2022-11-18T23:08:40.507Z,7.4
2022-11-18T23:13:42.756Z,6.8
2022-11-18T23:18:45.031Z,7.1
2022-11-18T23:23:47.077Z,7
2022-11-18T23:28:49.063Z,7.3
2022-11-18T23:33:51.262Z,7.4
2022-11-18T23:38:53.218Z,7.5
2022-11-18T23:43:55.227Z,8.1
2022-11-18T23:48:57.390Z,7.2
2022-11-18T23:53:59.595Z,6.7
2022-11-18T23:59:01.768Z,6.7
